Bei Facebook empfehlenBei Twitter postenGoogle plusPinterest

Das Wetter im Erzgebirge am 06.06.2015

Wetter und Klima am 06.06.2015 Holzhau im Erzgebirge (630m ü.NN)
Letzte gemessene Temperatur und Uhrzeit der Messung23:45:00 Uhr16.30 °C
Temperatur (Maximum / Höchstwert) und Uhrzeit der Messung14:45:00 Uhr31.10 °C
Temperatur (Minimum / Tiefstwert) und Uhrzeit der Messung04:45:009.80 °C
Errechneter Absolutwert der Temperaturschwankungen zwischen Tmin und Tmax des Tages21.30 K
Errechnete Tagesmitteltemperatur21.19271 °C
Gesamt - Niederschlag des Tages (in flüssiger Form)0.00 Liter / m²
Luftdruck (Maximum / Höchstwert) und Zeitpunkt der Messung23:45:00 Uhr1023.30 hPa
Luftdruck (Minimum / Tiefstwert) und Zeitpunkt der Messung05:00:00 Uhr1019.60 hPa
Errechneter Absolutwert der Luftdruckschwankungen des Tages3.70 hPa
Höchste gemessene Windgeschwindigkeit und Uhrzeit der Messung16:45:00 Uhr13.32 km/h
Errechnete Windhäufigkeit in Relation zu den Messwerten des Tages12.50000 %
Niedrigste Windkühle (Windchill) und Zeitpunkt der Messung04:45:00 Uhr9.80 °C
Taupunkt (Maximum / Höchstwert) und Uhrzeit der Messung19:45:00 Uhr17.50 °C
Taupunkt (Minimum / Tiefstwert) und Uhrzeit der Messung04:15:005.90 °C
Anzahl der automatisch eingelesenen Messwerte 96

Detaillierte Wetter- und Klima- Messwerte für den 06.06.2015 in Holzhau im Erzgebirge (630m ü.NN)
ZeitTemperaturLuftdruckRel. LuftfeuchteWindWindrichtungWindchillTaupunktNiederschlag l/m²
23:45:0016.30 °C1023.30 hPa87.00 %14.10 °C 
23:30:0016.50 °C1023.10 hPa87.00 %14.30 °C 
23:15:0016.60 °C1022.80 hPa86.00 %14.20 °C 
23:00:0016.80 °C1022.80 hPa85.00 %14.30 °C 
22:45:0017.10 °C1023.00 hPa86.00 %14.70 °C 
22:30:0017.30 °C1022.80 hPa85.00 %14.80 °C 
22:15:0017.60 °C1022.60 hPa84.00 %14.90 °C 
22:00:0018.10 °C1022.60 hPa85.00 %15.50 °C 
21:45:0018.30 °C1022.00 hPa83.00 %15.40 °C 
21:30:0018.50 °C1021.90 hPa82.00 %15.40 °C 
21:15:0018.90 °C1021.60 hPa80.00 %15.40 °C 
21:00:0019.40 °C1021.40 hPa78.00 %15.50 °C 
20:45:0020.00 °C1021.20 hPa77.00 %15.80 °C 
20:30:0020.90 °C1021.20 hPa75.00 %16.30 °C 
20:15:0021.70 °C1020.90 hPa74.00 %16.90 °C 
20:00:0021.90 °C1021.30 hPa73.00 %16.80 °C 
19:45:0022.80 °C1021.00 hPa72.00 %17.50 °C 
19:30:0023.20 °C1020.70 hPa68.00 %17.00 °C 
19:15:0024.10 °C1020.70 hPa60.00 %15.90 °C 
19:00:0027.30 °C1020.60 hPa48.00 %15.30 °C 
18:45:0028.60 °C1020.40 hPa45.00 %15.50 °C 
18:30:0029.60 °C1020.40 hPa42.00 %15.30 °C 
18:15:0030.40 °C1020.40 hPa41.00 %15.70 °C 
18:00:0030.10 °C1020.40 hPa42.00 %15.80 °C 
17:45:0029.70 °C1020.50 hPa45.00 %16.50 °C 
17:30:0028.80 °C1020.70 hPa44.00 %15.30 °C 
17:15:0029.80 °C1020.60 hPa42.00 %15.50 °C 
17:00:0029.70 °C1020.60 hPa42.00 %3.24 km/hSW29.70 °C15.40 °C 
16:45:0029.60 °C1020.50 hPa44.00 %13.32 km/hSW32.10 °C16.10 °C 
16:30:0028.50 °C1020.70 hPa44.00 %15.10 °C 
16:15:0029.70 °C1020.70 hPa42.00 %15.40 °C 
16:00:0029.80 °C1020.90 hPa43.00 %15.90 °C 
15:45:0029.90 °C1020.80 hPa42.00 %15.60 °C 
15:30:0030.60 °C1020.50 hPa42.00 %1.44 km/hSSW30.60 °C16.20 °C 
15:15:0030.20 °C1020.50 hPa41.00 %15.50 °C 
15:00:0030.40 °C1020.40 hPa40.00 %4.68 km/hSSW30.40 °C15.30 °C 
14:45:0031.10 °C1020.50 hPa40.00 %15.90 °C 
14:30:0030.80 °C1020.50 hPa40.00 %15.60 °C 
14:15:0030.30 °C1020.50 hPa42.00 %16.00 °C 
14:00:0030.10 °C1020.50 hPa41.00 %15.40 °C 
13:45:0029.90 °C1020.50 hPa42.00 %15.60 °C 
13:30:0029.60 °C1020.40 hPa40.00 %14.60 °C 
13:15:0029.30 °C1020.50 hPa42.00 %12.60 km/hS31.70 °C15.10 °C 
13:00:0029.10 °C1020.60 hPa43.00 %15.20 °C 
12:45:0028.90 °C1020.60 hPa43.00 %6.12 km/hWNW31.20 °C15.10 °C 
12:30:0028.60 °C1020.70 hPa44.00 %15.20 °C 
12:15:0028.30 °C1020.90 hPa45.00 %15.20 °C 
12:00:0028.10 °C1021.00 hPa45.00 %15.10 °C 
11:45:0027.90 °C1020.70 hPa44.00 %14.50 °C 
11:30:0027.80 °C1020.90 hPa45.00 %2.16 km/hSW27.80 °C14.80 °C 
11:15:0027.80 °C1020.80 hPa44.00 %5.04 km/hWNW29.90 °C14.40 °C 
11:00:0028.00 °C1020.70 hPa44.00 %14.60 °C 
10:45:0028.00 °C1020.50 hPa42.00 %13.90 °C 
10:30:0027.90 °C1020.40 hPa43.00 %14.20 °C 
10:15:0027.30 °C1020.40 hPa44.00 %14.00 °C 
10:00:0026.70 °C1020.30 hPa44.00 %13.40 °C 
09:45:0026.10 °C1020.50 hPa43.00 %12.50 °C 
09:30:0025.40 °C1020.30 hPa44.00 %12.30 °C 
09:15:0025.10 °C1020.30 hPa46.00 %4.32 km/hSSW25.10 °C12.70 °C 
09:00:0024.80 °C1020.20 hPa47.00 %12.70 °C 
08:45:0024.40 °C1020.30 hPa49.00 %5.40 km/hSW26.10 °C13.00 °C 
08:30:0024.00 °C1020.30 hPa52.00 %13.50 °C 
08:15:0023.60 °C1020.40 hPa54.00 %13.80 °C 
08:00:0022.80 °C1020.30 hPa56.00 %13.60 °C 
07:45:0021.50 °C1020.10 hPa59.00 %13.20 °C 
07:30:0019.90 °C1020.10 hPa63.00 %12.70 °C 
07:15:0016.50 °C1020.00 hPa72.00 %11.40 °C 
07:00:0013.50 °C1020.10 hPa73.00 %8.80 °C 
06:45:0013.40 °C1019.90 hPa73.00 %8.70 °C 
06:30:0012.40 °C1019.90 hPa76.00 %8.30 °C 
06:15:0011.80 °C1019.80 hPa75.00 %7.50 °C 
06:00:0011.90 °C1019.90 hPa75.00 %7.60 °C 
05:45:0011.40 °C1019.70 hPa75.00 %7.10 °C 
05:30:0011.10 °C1019.80 hPa76.00 %4.32 km/hSO11.10 °C7.00 °C 
05:15:0010.80 °C1019.70 hPa76.00 %6.70 °C 
05:00:0010.60 °C1019.60 hPa77.00 %6.70 °C 
04:45:009.80 °C1019.60 hPa78.00 %6.20 °C 
04:30:009.80 °C1019.80 hPa77.00 %6.00 °C 
04:15:009.90 °C1019.80 hPa76.00 %5.90 °C 
04:00:0010.40 °C1019.80 hPa74.00 %6.00 °C 
03:45:0010.90 °C1019.70 hPa73.00 %6.30 °C 
03:30:0010.90 °C1019.80 hPa72.00 %6.10 °C 
03:15:0011.20 °C1019.80 hPa71.00 %6.10 °C 
03:00:0011.80 °C1019.80 hPa70.00 %6.50 °C 
02:45:0011.80 °C1019.70 hPa71.00 %6.48 km/hOSO11.40 °C6.70 °C 
02:30:0011.30 °C1019.70 hPa73.00 %6.60 °C 
02:15:0011.10 °C1019.80 hPa73.00 %6.50 °C 
02:00:0011.30 °C1019.90 hPa73.00 %6.60 °C 
01:45:0011.30 °C1019.80 hPa73.00 %6.60 °C 
01:30:0011.80 °C1020.00 hPa72.00 %6.90 °C 
01:15:0011.90 °C1020.10 hPa71.00 %6.80 °C 
01:00:0012.30 °C1019.90 hPa70.00 %7.00 °C 
00:45:0012.60 °C1020.10 hPa69.00 %7.10 °C 
00:30:0012.70 °C1020.10 hPa69.00 %7.20 °C 
00:15:0013.00 °C1020.20 hPa68.00 %7.20 °C 
00:00:0013.50 °C1020.20 hPa66.00 %7.30 °C 

Permanenter Link zu dieser Seite: Wetter im Erzgebirge am 06.06.2015
Performance-Info: Die Erstellung der Seite / Statistik(en) / Tabelle(n) erforderte 5 Datenbankserver-Abfrage(n) und dauerte 113 Millisekunden. (Dieser Messwert ist von der Gesamt-Auslastung des Servers abhängig.)
Erzgebirge - Wetter | Erzgebirge - Wetter (Mobilgeräte) | Komplette Klimadatenbank